Airfield :
LOGIN :

Register | Disclaimer

   EN    FR    IT 

 










Legend :    VFR   Marginal VFR   IFR   Intensive IFR   Very Intensive IFR
Visi :
Ceiling :
>= 8 km
>= 3000ft
5 to 8 km
1000 to 3000 ft
1500m to 5 km
500 to 1000 ft
800 to 1500m
200 to 500 ft
< 800m
< 200 ft
Symbols :   Thunderstorms  Fog  Heavy snow  Heavy precipitations  Wind > 20 kt
SIGMETs :     Misc.  Thunderstorms  Icing  Turbulence  Mountain Waves  Volcanic Ashes






- Airport Elevation : 404 ft
- IATA code : WRO


EPWR - Wroclaw

CURRENT METAR :
  • 250430Z 12006KT CAVOK 15/14 Q1018

EXPIRED METARs :
  • 250400Z 10003KT CAVOK 14/13 Q1018
  • 250330Z 14004KT 9999 MIFG NSC 13/13 Q1018
  • 250300Z 14003KT 9999 MIFG NSC 14/14 Q1018
  • 250230Z 15004KT 8000 MIFG NSC 14/14 Q1018
  • 250200Z 14006KT 3500 1200W R29/1200U MIFG BR NSC 14/14 Q1018
  • 250130Z 10002KT 4000 0400W BCFG BR NSC 14/14 Q1018
  • 250100Z 13001KT 4000 MIFG BR NSC 15/15 Q1018
  • 250030Z VRB01KT 5000 1000W MIFG BR NSC 15/15 Q1018
  • 250000Z 12004KT 4700 BR NSC 15/15 Q1018

TAF TAF EPWR
Valid from the 25 at 03:00 until the 26 at 03:00 UTC


250230Z 2503/2603 VRB02KT 6000 NSC
PROB40
TEMPO 2503/2504 2500 BR
BECMG 2506/2509 16010KT
TEMPO 2511/2518 VRB17G34KT 2500 TSRA BKN035CB
TEMPO 2518/2524 -SHRA BKN040CB



MET'MAP, your aeronautical weather chart ! - Copyright ORBIFLY December 2007 - Disclaimer

ORBIFLY MET'MAP TEAM :

Programming & Development : Alexandra Zaïnal
Original concept : Baudouin d'Aumeries
Technical & hardware support : Manuel Goepfert
Assistance : Marc-Olivier Méhu




SOURCES & CREDITS :

   NOAA